PWSweather.com
Personal Weather Stations
Station Observations
KILMORRI1
Goose Lake, Morris, IL 60450

Goose LakeMorris, IL 60450

Lat: 41.34, Lon: -88.3

Elevation: 523

Station Type:

www.gooselakeweather.com

High Low Average
Temperature 92.5°F33.6°F 70.1°F21.2°F 79.0°F26.1°F
Dew Point 77.9°F25.5°F 65.9°F18.8°F 70.8°F21.6°F
Winds 6.9 mph SE11.1 mph SE Calm Calm 1.5 mph 2.4 mph
Wind Gusts 10.4 mph16.7 mph -- 3.0 mph4.8 mph
Humidity 93% 47% 78%
Pressure 29.98 in1015.20 in 29.89 in1012.20 in -
Precipitation 0.00 in0.00 in - -
Hour Temp Dew Point Humidity Winds Wind Gusts Pressure Precip Precip Rate Daily Precip Total
12:00 AM 70.7°F21.5°C 67.9°F19.9°C 91% 2.3 mph S3.7 kmh S 3.5 mph5.6 kmh 29.89 in1012.2 mb - 0.00 in0.0 mm 0.00 in0.0 mm
12:10 AM 72.1°F22.3°C 68.7°F20.4°C 89% 2.3 mph S3.7 kmh S 4.6 mph7.4 kmh 29.89 in1012.2 mb - 0.00 in0.0 mm 0.00 in0.0 mm
12:20 AM 75.2°F24.0°C 69.3°F20.7°C 82% 3.5 mph S5.6 kmh S 5.8 mph9.3 kmh 29.89 in1012.2 mb - 0.00 in0.0 mm 0.00 in0.0 mm
12:30 AM 76.1°F24.5°C 69.5°F20.8°C 80% 3.5 mph SSW5.6 kmh SSW 5.8 mph9.3 kmh 29.90 in1012.5 mb - 0.00 in0.0 mm 0.00 in0.0 mm
12:40 AM 76.3°F24.6°C 69.7°F20.9°C 80% 3.5 mph SSW5.6 kmh SSW 4.6 mph7.4 kmh 29.91 in1012.9 mb - 0.00 in0.0 mm 0.00 in0.0 mm
12:50 AM 76.2°F24.6°C 69.2°F20.7°C 79% 2.3 mph SSW3.7 kmh SSW 3.5 mph5.6 kmh 29.91 in1012.9 mb - 0.00 in0.0 mm 0.00 in0.0 mm
01:00 AM 76.2°F24.6°C 69.6°F20.9°C 80% 4.6 mph SSW7.4 kmh SSW 6.9 mph11.1 kmh 29.91 in1012.9 mb - 0.00 in0.0 mm 0.00 in0.0 mm
01:10 AM 75.8°F24.3°C 69.2°F20.7°C 80% 2.3 mph SW3.7 kmh SW 4.6 mph7.4 kmh 29.91 in1012.9 mb - 0.00 in0.0 mm 0.00 in0.0 mm
01:20 AM 75.5°F24.2°C 69.3°F20.7°C 81% 3.5 mph SSW5.6 kmh SSW 6.9 mph11.1 kmh 29.90 in1012.5 mb - 0.00 in0.0 mm 0.00 in0.0 mm
01:30 AM 74.9°F23.8°C 69.0°F20.6°C 82% 2.3 mph SSW3.7 kmh SSW 3.5 mph5.6 kmh 29.91 in1012.9 mb - 0.00 in0.0 mm 0.00 in0.0 mm
01:40 AM 74.3°F23.5°C 68.8°F20.4°C 83% 2.3 mph S3.7 kmh S 3.5 mph5.6 kmh 29.91 in1012.9 mb - 0.00 in0.0 mm 0.00 in0.0 mm
01:50 AM 74.2°F23.4°C 68.7°F20.4°C 83% Calm Calm -- 29.90 in1012.5 mb - 0.00 in0.0 mm 0.00 in0.0 mm
02:00 AM 73.0°F22.8°C 68.6°F20.3°C 86% Calm Calm -- 29.91 in1012.9 mb - 0.00 in0.0 mm 0.00 in0.0 mm
02:10 AM 71.8°F22.1°C 68.0°F20.0°C 88% Calm Calm -- 29.91 in1012.9 mb - 0.00 in0.0 mm 0.00 in0.0 mm
02:20 AM 71.1°F21.7°C 68.0°F20.0°C 90% Calm Calm -- 29.91 in1012.9 mb - 0.00 in0.0 mm 0.00 in0.0 mm
02:30 AM 70.6°F21.4°C 67.5°F19.7°C 90% 1.2 mph WNW1.9 kmh WNW 2.3 mph3.7 kmh 29.91 in1012.9 mb - 0.00 in0.0 mm 0.00 in0.0 mm
02:40 AM 70.4°F21.3°C 67.6°F19.8°C 91% 1.2 mph SW1.9 kmh SW 3.5 mph5.6 kmh 29.90 in1012.5 mb - 0.00 in0.0 mm 0.00 in0.0 mm
02:50 AM 70.8°F21.6°C 68.0°F20.0°C 91% 1.2 mph SSW1.9 kmh SSW 3.5 mph5.6 kmh 29.90 in1012.5 mb - 0.00 in0.0 mm 0.00 in0.0 mm
03:00 AM 71.0°F21.7°C 67.9°F19.9°C 90% 1.2 mph SSW1.9 kmh SSW 1.2 mph1.9 kmh 29.90 in1012.5 mb - 0.00 in0.0 mm 0.00 in0.0 mm
03:10 AM 71.3°F21.8°C 68.2°F20.1°C 90% Calm Calm -- 29.90 in1012.5 mb - 0.00 in0.0 mm 0.00 in0.0 mm
03:20 AM 71.1°F21.7°C 68.4°F20.2°C 91% 1.2 mph SSW1.9 kmh SSW 2.3 mph3.7 kmh 29.90 in1012.5 mb - 0.00 in0.0 mm 0.00 in0.0 mm
03:30 AM 71.2°F21.8°C 68.4°F20.2°C 91% 1.2 mph SSW1.9 kmh SSW 4.6 mph7.4 kmh 29.90 in1012.5 mb - 0.00 in0.0 mm 0.00 in0.0 mm
03:40 AM 72.0°F22.2°C 68.5°F20.3°C 89% 1.2 mph SSW1.9 kmh SSW 2.3 mph3.7 kmh 29.91 in1012.9 mb - 0.00 in0.0 mm 0.00 in0.0 mm
03:50 AM 72.2°F22.3°C 68.7°F20.4°C 89% 1.2 mph S1.9 kmh S 3.5 mph5.6 kmh 29.91 in1012.9 mb - 0.00 in0.0 mm 0.00 in0.0 mm
04:00 AM 72.6°F22.6°C 68.8°F20.4°C 88% 2.3 mph SW3.7 kmh SW 4.6 mph7.4 kmh 29.91 in1012.9 mb - 0.00 in0.0 mm 0.00 in0.0 mm
04:10 AM 72.6°F22.6°C 68.8°F20.4°C 88% 3.5 mph WSW5.6 kmh WSW 3.5 mph5.6 kmh 29.92 in1013.2 mb - 0.00 in0.0 mm 0.00 in0.0 mm
04:20 AM 72.4°F22.4°C 69.0°F20.6°C 89% 3.5 mph SW5.6 kmh SW 4.6 mph7.4 kmh 29.92 in1013.2 mb - 0.00 in0.0 mm 0.00 in0.0 mm
04:30 AM 72.4°F22.4°C 69.0°F20.6°C 89% 2.3 mph SW3.7 kmh SW 3.5 mph5.6 kmh 29.92 in1013.2 mb - 0.00 in0.0 mm 0.00 in0.0 mm
04:40 AM 72.0°F22.2°C 68.5°F20.3°C 89% 2.3 mph S3.7 kmh S 3.5 mph5.6 kmh 29.92 in1013.2 mb - 0.00 in0.0 mm 0.00 in0.0 mm
04:50 AM 71.9°F22.2°C 68.8°F20.4°C 90% 1.2 mph S1.9 kmh S 3.5 mph5.6 kmh 29.92 in1013.2 mb - 0.00 in0.0 mm 0.00 in0.0 mm
05:00 AM 71.8°F22.1°C 68.7°F20.4°C 90% Calm Calm 3.5 mph5.6 kmh 29.92 in1013.2 mb - 0.00 in0.0 mm 0.00 in0.0 mm
05:10 AM 71.3°F21.8°C 68.6°F20.3°C 91% 1.2 mph SW1.9 kmh SW 3.5 mph5.6 kmh 29.92 in1013.2 mb - 0.00 in0.0 mm 0.00 in0.0 mm
05:20 AM 71.6°F22.0°C 68.8°F20.4°C 91% 2.3 mph SSW3.7 kmh SSW 3.5 mph5.6 kmh 29.92 in1013.2 mb - 0.00 in0.0 mm 0.00 in0.0 mm
05:30 AM 71.0°F21.7°C 68.6°F20.3°C 92% 2.3 mph S3.7 kmh S 3.5 mph5.6 kmh 29.92 in1013.2 mb - 0.00 in0.0 mm 0.00 in0.0 mm
05:40 AM 71.2°F21.8°C 68.8°F20.4°C 92% 2.3 mph S3.7 kmh S 3.5 mph5.6 kmh 29.92 in1013.2 mb - 0.00 in0.0 mm 0.00 in0.0 mm
05:50 AM 71.2°F21.8°C 68.8°F20.4°C 92% 2.3 mph S3.7 kmh S 3.5 mph5.6 kmh 29.92 in1013.2 mb - 0.00 in0.0 mm 0.00 in0.0 mm
06:00 AM 70.7°F21.5°C 68.2°F20.1°C 92% 1.2 mph S1.9 kmh S 2.3 mph3.7 kmh 29.92 in1013.2 mb - 0.00 in0.0 mm 0.00 in0.0 mm
06:10 AM 70.1°F21.2°C 68.0°F20.0°C 93% 1.2 mph S1.9 kmh S 3.5 mph5.6 kmh 29.91 in1012.9 mb - 0.00 in0.0 mm 0.00 in0.0 mm
06:20 AM 70.5°F21.4°C 68.4°F20.2°C 93% 1.2 mph S1.9 kmh S 3.5 mph5.6 kmh 29.91 in1012.9 mb - 0.00 in0.0 mm 0.00 in0.0 mm
06:30 AM 70.8°F21.6°C 68.7°F20.4°C 93% 4.6 mph SW7.4 kmh SW 6.9 mph11.1 kmh 29.92 in1013.2 mb - 0.00 in0.0 mm 0.00 in0.0 mm
06:40 AM 71.3°F21.8°C 68.8°F20.4°C 92% 3.5 mph S5.6 kmh S 5.8 mph9.3 kmh 29.92 in1013.2 mb - 0.00 in0.0 mm 0.00 in0.0 mm
06:50 AM 71.1°F21.7°C 68.7°F20.4°C 92% 3.5 mph SSW5.6 kmh SSW 4.6 mph7.4 kmh 29.93 in1013.5 mb - 0.00 in0.0 mm 0.00 in0.0 mm
07:00 AM 71.2°F21.8°C 69.1°F20.6°C 93% 3.5 mph SW5.6 kmh SW 6.9 mph11.1 kmh 29.94 in1013.9 mb - 0.00 in0.0 mm 0.00 in0.0 mm
07:10 AM 71.6°F22.0°C 69.1°F20.6°C 92% 2.3 mph SW3.7 kmh SW 3.5 mph5.6 kmh 29.94 in1013.9 mb - 0.00 in0.0 mm 0.00 in0.0 mm
07:20 AM 71.8°F22.1°C 69.3°F20.7°C 92% 2.3 mph S3.7 kmh S 6.9 mph11.1 kmh 29.94 in1013.9 mb - 0.00 in0.0 mm 0.00 in0.0 mm
07:30 AM 71.9°F22.2°C 69.1°F20.6°C 91% 1.2 mph S1.9 kmh S 3.5 mph5.6 kmh 29.95 in1014.2 mb - 0.00 in0.0 mm 0.00 in0.0 mm
07:40 AM 72.3°F22.4°C 69.5°F20.8°C 91% 2.3 mph S3.7 kmh S 3.5 mph5.6 kmh 29.95 in1014.2 mb - 0.00 in0.0 mm 0.00 in0.0 mm
07:50 AM 72.5°F22.5°C 69.7°F20.9°C 91% 2.3 mph S3.7 kmh S 3.5 mph5.6 kmh 29.95 in1014.2 mb - 0.00 in0.0 mm 0.00 in0.0 mm
08:00 AM 72.6°F22.6°C 69.8°F21.0°C 91% Calm Calm 1.2 mph1.9 kmh 29.96 in1014.6 mb - 0.00 in0.0 mm 0.00 in0.0 mm
08:10 AM 73.1°F22.8°C 70.3°F21.3°C 91% 1.2 mph S1.9 kmh S 2.3 mph3.7 kmh 29.96 in1014.6 mb - 0.00 in0.0 mm 0.00 in0.0 mm
08:20 AM 74.2°F23.4°C 70.7°F21.5°C 89% 1.2 mph S1.9 kmh S 1.2 mph1.9 kmh 29.96 in1014.6 mb - 0.00 in0.0 mm 0.00 in0.0 mm
08:30 AM 75.0°F23.9°C 70.9°F21.6°C 87% Calm Calm -- 29.97 in1014.9 mb - 0.00 in0.0 mm 0.00 in0.0 mm
08:40 AM 75.4°F24.1°C 70.6°F21.4°C 85% 1.2 mph S1.9 kmh S 2.3 mph3.7 kmh 29.97 in1014.9 mb - 0.00 in0.0 mm 0.00 in0.0 mm
08:50 AM 76.4°F24.7°C 71.2°F21.8°C 84% Calm Calm 1.2 mph1.9 kmh 29.97 in1014.9 mb - 0.00 in0.0 mm 0.00 in0.0 mm
09:00 AM 77.1°F25.1°C 70.8°F21.6°C 81% 1.2 mph S1.9 kmh S 3.5 mph5.6 kmh 29.97 in1014.9 mb - 0.00 in0.0 mm 0.00 in0.0 mm
09:10 AM 77.6°F25.3°C 71.3°F21.8°C 81% Calm Calm 2.3 mph3.7 kmh 29.98 in1015.2 mb - 0.00 in0.0 mm 0.00 in0.0 mm
09:20 AM 77.7°F25.4°C 71.0°F21.7°C 80% Calm Calm -- 29.98 in1015.2 mb - 0.00 in0.0 mm 0.00 in0.0 mm
09:30 AM 78.3°F25.7°C 70.9°F21.6°C 78% 1.2 mph S1.9 kmh S 2.3 mph3.7 kmh 29.98 in1015.2 mb - 0.00 in0.0 mm 0.00 in0.0 mm
09:40 AM 79.2°F26.2°C 70.2°F21.2°C 74% Calm Calm 1.2 mph1.9 kmh 29.98 in1015.2 mb - 0.00 in0.0 mm 0.00 in0.0 mm
09:50 AM 79.6°F26.4°C 70.2°F21.2°C 73% Calm Calm -- 29.98 in1015.2 mb - 0.00 in0.0 mm 0.00 in0.0 mm
10:00 AM 80.2°F26.8°C 69.5°F20.8°C 70% Calm Calm -- 29.98 in1015.2 mb - 0.00 in0.0 mm 0.00 in0.0 mm
10:10 AM 80.9°F27.2°C 69.8°F21.0°C 69% Calm Calm -- 29.98 in1015.2 mb - 0.00 in0.0 mm 0.00 in0.0 mm
10:20 AM 81.5°F27.5°C 68.6°F20.3°C 65% Calm Calm -- 29.98 in1015.2 mb - 0.00 in0.0 mm 0.00 in0.0 mm
10:30 AM 81.8°F27.7°C 69.3°F20.7°C 66% Calm Calm -- 29.98 in1015.2 mb - 0.00 in0.0 mm 0.00 in0.0 mm
10:40 AM 82.8°F28.2°C 69.4°F20.8°C 64% 1.2 mph S1.9 kmh S 3.5 mph5.6 kmh 29.98 in1015.2 mb - 0.00 in0.0 mm 0.00 in0.0 mm
10:50 AM 83.8°F28.8°C 70.3°F21.3°C 64% 2.3 mph SE3.7 kmh SE 3.5 mph5.6 kmh 29.98 in1015.2 mb - 0.00 in0.0 mm 0.00 in0.0 mm
11:00 AM 84.1°F28.9°C 69.2°F20.7°C 61% Calm Calm 3.5 mph5.6 kmh 29.98 in1015.2 mb - 0.00 in0.0 mm 0.00 in0.0 mm
11:10 AM 84.9°F29.4°C 70.4°F21.3°C 62% 1.2 mph SSW1.9 kmh SSW 3.5 mph5.6 kmh 29.97 in1014.9 mb - 0.00 in0.0 mm 0.00 in0.0 mm
11:20 AM 85.2°F29.6°C 68.7°F20.4°C 58% 1.2 mph S1.9 kmh S 1.2 mph1.9 kmh 29.98 in1015.2 mb - 0.00 in0.0 mm 0.00 in0.0 mm
11:30 AM 85.7°F29.8°C 69.2°F20.7°C 58% 2.3 mph S3.7 kmh S 3.5 mph5.6 kmh 29.98 in1015.2 mb - 0.00 in0.0 mm 0.00 in0.0 mm
11:40 AM 86.5°F30.3°C 70.9°F21.6°C 60% 1.2 mph S1.9 kmh S 3.5 mph5.6 kmh 29.98 in1015.2 mb - 0.00 in0.0 mm 0.00 in0.0 mm
11:50 AM 86.3°F30.2°C 68.7°F20.4°C 56% 2.3 mph WNW3.7 kmh WNW 4.6 mph7.4 kmh 29.98 in1015.2 mb - 0.00 in0.0 mm 0.00 in0.0 mm
12:00 PM 86.8°F30.4°C 67.6°F19.8°C 53% 1.2 mph NW1.9 kmh NW 3.5 mph5.6 kmh 29.98 in1015.2 mb - 0.00 in0.0 mm 0.00 in0.0 mm
12:10 PM 86.4°F30.2°C 66.2°F19.0°C 51% Calm Calm 1.2 mph1.9 kmh 29.98 in1015.2 mb - 0.00 in0.0 mm 0.00 in0.0 mm
12:20 PM 86.7°F30.4°C 65.9°F18.8°C 50% 1.2 mph S1.9 kmh S 2.3 mph3.7 kmh 29.97 in1014.9 mb - 0.00 in0.0 mm 0.00 in0.0 mm
12:30 PM 87.7°F30.9°C 66.7°F19.3°C 50% 2.3 mph S3.7 kmh S 3.5 mph5.6 kmh 29.98 in1015.2 mb - 0.00 in0.0 mm 0.00 in0.0 mm
12:40 PM 88.2°F31.2°C 67.2°F19.6°C 50% 1.2 mph SSE1.9 kmh SSE 5.8 mph9.3 kmh 29.97 in1014.9 mb - 0.00 in0.0 mm 0.00 in0.0 mm
12:50 PM 88.9°F31.6°C 67.9°F19.9°C 50% 1.2 mph S1.9 kmh S 3.5 mph5.6 kmh 29.97 in1014.9 mb - 0.00 in0.0 mm 0.00 in0.0 mm
01:00 PM 89.4°F31.9°C 68.3°F20.2°C 50% 2.3 mph ENE3.7 kmh ENE 2.3 mph3.7 kmh 29.96 in1014.6 mb - 0.00 in0.0 mm 0.00 in0.0 mm
01:10 PM 88.8°F31.6°C 66.6°F19.2°C 48% 1.2 mph E1.9 kmh E 2.3 mph3.7 kmh 29.96 in1014.6 mb - 0.00 in0.0 mm 0.00 in0.0 mm
01:20 PM 89.7°F32.1°C 66.8°F19.3°C 47% 1.2 mph E1.9 kmh E 2.3 mph3.7 kmh 29.96 in1014.6 mb - 0.00 in0.0 mm 0.00 in0.0 mm
01:30 PM 89.6°F32.0°C 69.7°F20.9°C 52% 2.3 mph SSE3.7 kmh SSE 4.6 mph7.4 kmh 29.96 in1014.6 mb - 0.00 in0.0 mm 0.00 in0.0 mm
01:40 PM 90.1°F32.3°C 69.0°F20.6°C 50% 2.3 mph E3.7 kmh E 4.6 mph7.4 kmh 29.96 in1014.6 mb - 0.00 in0.0 mm 0.00 in0.0 mm
01:50 PM 90.7°F32.6°C 70.6°F21.4°C 52% 2.3 mph SSW3.7 kmh SSW 3.5 mph5.6 kmh 29.95 in1014.2 mb - 0.00 in0.0 mm 0.00 in0.0 mm
02:00 PM 91.8°F33.2°C 73.4°F23.0°C 55% 1.2 mph SE1.9 kmh SE 1.2 mph1.9 kmh 29.95 in1014.2 mb - 0.00 in0.0 mm 0.00 in0.0 mm
02:10 PM 92.1°F33.4°C 73.6°F23.1°C 55% 3.5 mph ESE5.6 kmh ESE 3.5 mph5.6 kmh 29.94 in1013.9 mb - 0.00 in0.0 mm 0.00 in0.0 mm
02:20 PM 91.8°F33.2°C 71.7°F22.1°C 52% 1.2 mph S1.9 kmh S 3.5 mph5.6 kmh 29.94 in1013.9 mb - 0.00 in0.0 mm 0.00 in0.0 mm
02:30 PM 92.5°F33.6°C 72.9°F22.7°C 53% 4.6 mph SW7.4 kmh SW 5.8 mph9.3 kmh 29.94 in1013.9 mb - 0.00 in0.0 mm 0.00 in0.0 mm
02:40 PM 92.4°F33.6°C 72.8°F22.7°C 53% 3.5 mph SE5.6 kmh SE 6.9 mph11.1 kmh 29.94 in1013.9 mb - 0.00 in0.0 mm 0.00 in0.0 mm
02:50 PM 92.1°F33.4°C 73.6°F23.1°C 55% 6.9 mph SE11.1 kmh SE 10.4 mph16.7 kmh 29.93 in1013.5 mb - 0.00 in0.0 mm 0.00 in0.0 mm
03:00 PM 92.2°F33.4°C 73.7°F23.2°C 55% 6.9 mph SE11.1 kmh SE 9.2 mph14.8 kmh 29.93 in1013.5 mb - 0.00 in0.0 mm 0.00 in0.0 mm
03:10 PM 91.7°F33.2°C 72.7°F22.6°C 54% 3.5 mph S5.6 kmh S 3.5 mph5.6 kmh 29.93 in1013.5 mb - 0.00 in0.0 mm 0.00 in0.0 mm
03:20 PM 92.1°F33.4°C 72.0°F22.2°C 52% 3.5 mph S5.6 kmh S 3.5 mph5.6 kmh 29.93 in1013.5 mb - 0.00 in0.0 mm 0.00 in0.0 mm
03:30 PM 91.9°F33.3°C 72.9°F22.7°C 54% 4.6 mph S7.4 kmh S 6.9 mph11.1 kmh 29.93 in1013.5 mb - 0.00 in0.0 mm 0.00 in0.0 mm
03:40 PM 89.8°F32.1°C 72.0°F22.2°C 56% 3.5 mph SW5.6 kmh SW 4.6 mph7.4 kmh 29.92 in1013.2 mb - 0.00 in0.0 mm 0.00 in0.0 mm
03:50 PM 88.9°F31.6°C 73.7°F23.2°C 61% 1.2 mph S1.9 kmh S 3.5 mph5.6 kmh 29.92 in1013.2 mb - 0.00 in0.0 mm 0.00 in0.0 mm
04:00 PM 88.2°F31.2°C 74.0°F23.3°C 63% 1.2 mph SW1.9 kmh SW 3.5 mph5.6 kmh 29.92 in1013.2 mb - 0.00 in0.0 mm 0.00 in0.0 mm
04:10 PM 87.9°F31.1°C 75.6°F24.2°C 67% 1.2 mph SW1.9 kmh SW 2.3 mph3.7 kmh 29.92 in1013.2 mb - 0.00 in0.0 mm 0.00 in0.0 mm
04:20 PM 87.9°F31.1°C 75.1°F23.9°C 66% 1.2 mph SW1.9 kmh SW 3.5 mph5.6 kmh 29.92 in1013.2 mb - 0.00 in0.0 mm 0.00 in0.0 mm
04:30 PM 87.3°F30.7°C 74.6°F23.7°C 66% 1.2 mph SW1.9 kmh SW 3.5 mph5.6 kmh 29.92 in1013.2 mb - 0.00 in0.0 mm 0.00 in0.0 mm
04:40 PM 87.0°F30.6°C 76.0°F24.4°C 70% Calm Calm -- 29.92 in1013.2 mb - 0.00 in0.0 mm 0.00 in0.0 mm
04:50 PM 86.8°F30.4°C 77.1°F25.1°C 73% Calm Calm -- 29.92 in1013.2 mb - 0.00 in0.0 mm 0.00 in0.0 mm
05:00 PM 86.4°F30.2°C 77.9°F25.5°C 76% Calm Calm -- 29.92 in1013.2 mb - 0.00 in0.0 mm 0.00 in0.0 mm
05:10 PM 85.7°F29.8°C 76.1°F24.5°C 73% Calm Calm -- 29.91 in1012.9 mb - 0.00 in0.0 mm 0.00 in0.0 mm
05:20 PM 85.1°F29.5°C 77.1°F25.1°C 77% Calm Calm -- 29.91 in1012.9 mb - 0.00 in0.0 mm 0.00 in0.0 mm
05:30 PM 84.7°F29.3°C 77.5°F25.3°C 79% 1.2 mph SW1.9 kmh SW 3.5 mph5.6 kmh 29.91 in1012.9 mb - 0.00 in0.0 mm 0.00 in0.0 mm
05:40 PM 84.7°F29.3°C 76.3°F24.6°C 76% Calm Calm 2.3 mph3.7 kmh 29.91 in1012.9 mb - 0.00 in0.0 mm 0.00 in0.0 mm
05:50 PM 84.1°F28.9°C 76.5°F24.7°C 78% 1.2 mph SW1.9 kmh SW 2.3 mph3.7 kmh 29.91 in1012.9 mb - 0.00 in0.0 mm 0.00 in0.0 mm
06:00 PM 83.8°F28.8°C 77.3°F25.2°C 81% Calm Calm 2.3 mph3.7 kmh 29.91 in1012.9 mb - 0.00 in0.0 mm 0.00 in0.0 mm
06:10 PM 83.2°F28.4°C 75.3°F24.1°C 77% Calm Calm 3.5 mph5.6 kmh 29.91 in1012.9 mb - 0.00 in0.0 mm 0.00 in0.0 mm
06:20 PM 82.3°F27.9°C 74.7°F23.7°C 78% 1.2 mph SSW1.9 kmh SSW 3.5 mph5.6 kmh 29.91 in1012.9 mb - 0.00 in0.0 mm 0.00 in0.0 mm
06:30 PM 81.5°F27.5°C 74.7°F23.7°C 80% Calm Calm 1.2 mph1.9 kmh 29.91 in1012.9 mb - 0.00 in0.0 mm 0.00 in0.0 mm
06:40 PM 81.0°F27.2°C 74.6°F23.7°C 81% Calm Calm 2.3 mph3.7 kmh 29.92 in1013.2 mb - 0.00 in0.0 mm 0.00 in0.0 mm
06:50 PM 80.3°F26.8°C 74.3°F23.5°C 82% Calm Calm 1.2 mph1.9 kmh 29.92 in1013.2 mb - 0.00 in0.0 mm 0.00 in0.0 mm
07:00 PM 79.4°F26.3°C 74.5°F23.6°C 85% Calm Calm -- 29.92 in1013.2 mb - 0.00 in0.0 mm 0.00 in0.0 mm
07:10 PM 78.3°F25.7°C 74.1°F23.4°C 87% Calm Calm -- 29.92 in1013.2 mb - 0.00 in0.0 mm 0.00 in0.0 mm
07:20 PM 77.8°F25.4°C 74.0°F23.3°C 88% Calm Calm 1.2 mph1.9 kmh 29.92 in1013.2 mb - 0.00 in0.0 mm 0.00 in0.0 mm
07:30 PM 77.3°F25.2°C 73.9°F23.3°C 89% 1.2 mph S1.9 kmh S 3.5 mph5.6 kmh 29.92 in1013.2 mb - 0.00 in0.0 mm 0.00 in0.0 mm
07:40 PM 77.5°F25.3°C 73.3°F22.9°C 87% 1.2 mph S1.9 kmh S 2.3 mph3.7 kmh 29.93 in1013.5 mb - 0.00 in0.0 mm 0.00 in0.0 mm
07:50 PM 78.1°F25.6°C 73.2°F22.9°C 85% 1.2 mph S1.9 kmh S 2.3 mph3.7 kmh 29.93 in1013.5 mb - 0.00 in0.0 mm 0.00 in0.0 mm
08:00 PM 78.4°F25.8°C 73.5°F23.1°C 85% Calm Calm 1.2 mph1.9 kmh 29.93 in1013.5 mb - 0.00 in0.0 mm 0.00 in0.0 mm
08:10 PM 77.9°F25.5°C 73.0°F22.8°C 85% Calm Calm 1.2 mph1.9 kmh 29.94 in1013.9 mb - 0.00 in0.0 mm 0.00 in0.0 mm
08:20 PM 77.6°F25.3°C 73.1°F22.8°C 86% 1.2 mph S1.9 kmh S 2.3 mph3.7 kmh 29.94 in1013.9 mb - 0.00 in0.0 mm 0.00 in0.0 mm
08:30 PM 77.5°F25.3°C 72.7°F22.6°C 85% Calm Calm 2.3 mph3.7 kmh 29.94 in1013.9 mb - 0.00 in0.0 mm 0.00 in0.0 mm
08:40 PM 77.3°F25.2°C 72.8°F22.7°C 86% Calm Calm 1.2 mph1.9 kmh 29.94 in1013.9 mb - 0.00 in0.0 mm 0.00 in0.0 mm
08:50 PM 76.7°F24.8°C 72.2°F22.3°C 86% Calm Calm -- 29.95 in1014.2 mb - 0.00 in0.0 mm 0.00 in0.0 mm
09:00 PM 75.7°F24.3°C 71.9°F22.2°C 88% 1.2 mph S1.9 kmh S 2.3 mph3.7 kmh 29.95 in1014.2 mb - 0.00 in0.0 mm 0.00 in0.0 mm
09:10 PM 75.2°F24.0°C 71.7°F22.1°C 89% Calm Calm 2.3 mph3.7 kmh 29.95 in1014.2 mb - 0.00 in0.0 mm 0.00 in0.0 mm
09:20 PM 75.0°F23.9°C 71.9°F22.2°C 90% 1.2 mph S1.9 kmh S 2.3 mph3.7 kmh 29.95 in1014.2 mb - 0.00 in0.0 mm 0.00 in0.0 mm
09:30 PM 75.1°F23.9°C 71.6°F22.0°C 89% Calm Calm 2.3 mph3.7 kmh 29.95 in1014.2 mb - 0.00 in0.0 mm 0.00 in0.0 mm
09:40 PM 75.2°F24.0°C 71.8°F22.1°C 89% 1.2 mph S1.9 kmh S 2.3 mph3.7 kmh 29.95 in1014.2 mb - 0.00 in0.0 mm 0.00 in0.0 mm
09:50 PM 75.4°F24.1°C 71.6°F22.0°C 88% 1.2 mph S1.9 kmh S 2.3 mph3.7 kmh 29.95 in1014.2 mb - 0.00 in0.0 mm 0.00 in0.0 mm
10:00 PM 75.4°F24.1°C 71.6°F22.0°C 88% 1.2 mph S1.9 kmh S 2.3 mph3.7 kmh 29.95 in1014.2 mb - 0.00 in0.0 mm 0.00 in0.0 mm
10:10 PM 75.5°F24.2°C 71.7°F22.1°C 88% 1.2 mph S1.9 kmh S 2.3 mph3.7 kmh 29.95 in1014.2 mb - 0.00 in0.0 mm 0.00 in0.0 mm
10:20 PM 75.8°F24.3°C 71.7°F22.1°C 87% 2.3 mph S3.7 kmh S 3.5 mph5.6 kmh 29.95 in1014.2 mb - 0.00 in0.0 mm 0.00 in0.0 mm
10:30 PM 75.7°F24.3°C 71.6°F22.0°C 87% 1.2 mph S1.9 kmh S 2.3 mph3.7 kmh 29.95 in1014.2 mb - 0.00 in0.0 mm 0.00 in0.0 mm
10:40 PM 75.7°F24.3°C 71.5°F21.9°C 87% 1.2 mph S1.9 kmh S 3.5 mph5.6 kmh 29.95 in1014.2 mb - 0.00 in0.0 mm 0.00 in0.0 mm
10:50 PM 75.1°F23.9°C 71.3°F21.8°C 88% 1.2 mph S1.9 kmh S 3.5 mph5.6 kmh 29.96 in1014.6 mb - 0.00 in0.0 mm 0.00 in0.0 mm
11:00 PM 75.0°F23.9°C 71.2°F21.8°C 88% 1.2 mph S1.9 kmh S 3.5 mph5.6 kmh 29.96 in1014.6 mb - 0.00 in0.0 mm 0.00 in0.0 mm
11:10 PM 75.0°F23.9°C 71.2°F21.8°C 88% 1.2 mph S1.9 kmh S 3.5 mph5.6 kmh 29.96 in1014.6 mb - 0.00 in0.0 mm 0.00 in0.0 mm
11:20 PM 74.4°F23.6°C 70.6°F21.4°C 88% 2.3 mph S3.7 kmh S 3.5 mph5.6 kmh 29.96 in1014.6 mb - 0.00 in0.0 mm 0.00 in0.0 mm
11:30 PM 75.7°F24.3°C 71.5°F21.9°C 87% 2.3 mph S3.7 kmh S 3.5 mph5.6 kmh 29.96 in1014.6 mb - 0.00 in0.0 mm 0.00 in0.0 mm
11:40 PM 77.6°F25.3°C 71.6°F22.0°C 82% 3.5 mph S5.6 kmh S 8.1 mph13.0 kmh 29.96 in1014.6 mb - 0.00 in0.0 mm 0.00 in0.0 mm
11:50 PM 77.5°F25.3°C 71.2°F21.8°C 81% 3.5 mph S5.6 kmh S 4.6 mph7.4 kmh 29.96 in1014.6 mb - 0.00 in0.0 mm 0.00 in0.0 mm